createdAt,value
2018-09-21T00:00:25.916Z,62.70
2018-09-21T00:02:54.222Z,63.10
2018-09-21T00:05:22.536Z,63.20
2018-09-21T00:07:50.928Z,63.00
2018-09-21T00:10:19.279Z,62.80
2018-09-21T00:12:47.638Z,62.80
2018-09-21T00:15:15.948Z,62.80
2018-09-21T00:17:44.411Z,62.60
2018-09-21T00:20:12.748Z,62.60
2018-09-21T00:22:41.092Z,62.40
2018-09-21T00:25:09.418Z,62.30
2018-09-21T00:27:38.122Z,62.40
2018-09-21T00:30:06.619Z,62.40
2018-09-21T00:32:35.053Z,62.40
2018-09-21T00:35:03.396Z,62.70
2018-09-21T00:37:31.726Z,62.70
2018-09-21T00:40:00.053Z,62.90
2018-09-21T00:42:28.556Z,63.00
2018-09-21T00:44:56.933Z,63.10
2018-09-21T00:47:25.261Z,63.20
2018-09-21T00:49:53.580Z,63.20
2018-09-21T00:52:21.900Z,63.30
2018-09-21T00:54:50.215Z,63.90
2018-09-21T00:57:18.531Z,64.00
2018-09-21T00:59:46.985Z,63.80
2018-09-21T01:02:15.316Z,63.80
2018-09-21T01:04:44.537Z,63.80
2018-09-21T01:07:14.589Z,64.40
2018-09-21T01:09:43.588Z,63.80
2018-09-21T01:12:11.893Z,63.80
2018-09-21T01:14:40.231Z,63.70
2018-09-21T01:17:08.559Z,63.70
2018-09-21T01:19:36.940Z,64.00
2018-09-21T01:22:05.371Z,64.20
2018-09-21T01:24:33.727Z,64.10
2018-09-21T01:27:07.947Z,64.10
2018-09-21T01:29:36.269Z,64.30
2018-09-21T01:32:04.646Z,64.60
2018-09-21T01:34:33.017Z,64.60
2018-09-21T01:37:01.451Z,64.60
2018-09-21T01:39:29.815Z,64.40
2018-09-21T01:41:58.114Z,64.00
2018-09-21T01:44:26.447Z,63.90
2018-09-21T01:46:54.857Z,64.20
2018-09-21T01:49:23.202Z,64.80
2018-09-21T01:51:51.533Z,64.90
2018-09-21T01:54:19.863Z,64.50
2018-09-21T01:56:48.195Z,64.20
2018-09-21T01:59:16.537Z,65.10
2018-09-21T02:01:44.935Z,64.70
2018-09-21T02:04:13.288Z,64.90
2018-09-21T02:06:41.661Z,64.80
2018-09-21T02:09:10.319Z,64.50
2018-09-21T02:11:38.673Z,64.30
2018-09-21T02:14:07.061Z,64.30
2018-09-21T02:16:35.450Z,64.20
2018-09-21T02:19:03.762Z,64.10
2018-09-21T02:21:32.276Z,64.00
2018-09-21T02:24:00.591Z,64.40
2018-09-21T02:26:28.941Z,64.80
2018-09-21T02:28:57.263Z,65.20
2018-09-21T02:31:25.621Z,65.30
2018-09-21T02:33:53.989Z,65.20
2018-09-21T02:36:22.887Z,65.40
2018-09-21T02:38:51.225Z,66.20
2018-09-21T02:41:19.626Z,66.30
2018-09-21T02:43:47.894Z,66.60
2018-09-21T02:46:16.243Z,66.10
2018-09-21T02:48:44.671Z,65.70
2018-09-21T02:51:12.939Z,65.70
2018-09-21T02:53:41.266Z,65.50
2018-09-21T02:56:09.719Z,65.10
2018-09-21T02:58:38.128Z,65.00
2018-09-21T03:01:06.737Z,65.00
2018-09-21T03:03:35.463Z,65.20
2018-09-21T03:06:03.825Z,65.10
2018-09-21T03:08:32.185Z,65.30
2018-09-21T03:11:00.511Z,65.60
2018-09-21T03:13:29.043Z,65.50
2018-09-21T03:15:57.817Z,65.50
2018-09-21T03:18:26.165Z,65.80
2018-09-21T03:20:54.797Z,66.00
2018-09-21T03:23:23.713Z,66.30
2018-09-21T03:25:52.535Z,66.40
2018-09-21T03:28:20.850Z,66.40
2018-09-21T03:30:49.178Z,66.40
2018-09-21T03:33:17.519Z,66.40
2018-09-21T03:35:45.864Z,66.40
2018-09-21T03:38:14.201Z,66.30
2018-09-21T03:40:42.604Z,66.40
2018-09-21T03:43:11.293Z,66.40
2018-09-21T03:45:40.149Z,66.40
2018-09-21T03:48:08.596Z,66.40
2018-09-21T03:50:36.933Z,66.40
2018-09-21T03:53:05.312Z,66.40
2018-09-21T03:55:33.635Z,66.20
2018-09-21T03:58:01.950Z,65.80
2018-09-21T04:00:30.271Z,66.00
2018-09-21T04:03:02.776Z,66.10
2018-09-21T04:05:31.186Z,66.40
2018-09-21T04:07:59.508Z,66.40
2018-09-21T04:10:27.862Z,66.40
2018-09-21T04:12:56.224Z,66.40
2018-09-21T04:15:24.542Z,66.40
2018-09-21T04:17:52.884Z,66.40
2018-09-21T04:20:21.276Z,66.40
2018-09-21T04:22:54.183Z,66.40
2018-09-21T04:25:22.460Z,66.40
2018-09-21T04:27:50.812Z,66.40
2018-09-21T04:30:19.159Z,66.40
2018-09-21T04:32:47.486Z,66.20
2018-09-21T04:35:15.820Z,66.40
2018-09-21T04:37:44.345Z,66.30
2018-09-21T04:40:12.746Z,66.40
2018-09-21T04:42:41.136Z,66.40
2018-09-21T04:45:09.483Z,66.40
2018-09-21T04:47:37.845Z,66.40
2018-09-21T04:50:06.227Z,66.20
2018-09-21T04:52:35.499Z,66.20
2018-09-21T04:55:03.839Z,66.20
2018-09-21T04:57:32.247Z,66.30
2018-09-21T05:00:00.591Z,66.20
2018-09-21T05:02:28.964Z,66.20
2018-09-21T05:04:57.316Z,66.20
2018-09-21T05:07:25.675Z,65.90
2018-09-21T05:09:54.701Z,65.90
2018-09-21T05:12:23.051Z,66.20
2018-09-21T05:14:51.479Z,66.80
2018-09-21T05:17:20.417Z,66.20
2018-09-21T05:19:49.307Z,66.20
2018-09-21T05:22:17.729Z,66.20
2018-09-21T05:24:46.124Z,66.20
2018-09-21T05:27:14.434Z,66.20
2018-09-21T05:29:42.803Z,66.20
2018-09-21T05:32:11.772Z,66.20
2018-09-21T05:34:40.348Z,66.20
2018-09-21T05:37:08.492Z,66.40
2018-09-21T05:39:36.989Z,66.50
2018-09-21T05:42:05.369Z,65.30
2018-09-21T05:44:33.725Z,61.90
2018-09-21T05:47:02.164Z,59.30
2018-09-21T05:49:30.592Z,59.70
2018-09-21T05:51:58.894Z,59.10
2018-09-21T05:54:27.251Z,58.30
2018-09-21T05:56:55.597Z,57.40
2018-09-21T05:59:23.919Z,58.20
2018-09-21T06:01:52.241Z,58.30
2018-09-21T06:04:20.636Z,58.30
2018-09-21T06:06:49.085Z,57.40
2018-09-21T06:09:17.415Z,57.10
2018-09-21T06:11:45.721Z,56.70
2018-09-21T06:14:14.171Z,56.10
2018-09-21T06:16:42.587Z,55.70
2018-09-21T06:19:11.001Z,55.50
2018-09-21T06:21:39.334Z,56.00
2018-09-21T06:24:07.679Z,55.30
2018-09-21T06:26:35.991Z,55.10
2018-09-21T06:29:04.323Z,54.90
2018-09-21T06:31:32.739Z,55.00
2018-09-21T06:34:01.351Z,55.40
2018-09-21T06:36:29.700Z,55.80
2018-09-21T06:38:58.189Z,56.60
2018-09-21T06:41:26.535Z,57.10
2018-09-21T06:43:54.963Z,56.50
2018-09-21T06:46:23.325Z,55.70
2018-09-21T06:48:51.705Z,55.50
2018-09-21T06:51:20.047Z,55.20
2018-09-21T06:53:48.403Z,55.40
2018-09-21T06:56:16.904Z,55.70
2018-09-21T06:58:45.243Z,55.30
2018-09-21T07:01:13.667Z,54.90
2018-09-21T07:03:41.982Z,54.20
2018-09-21T07:06:10.337Z,54.10
2018-09-21T07:08:38.675Z,54.40
2018-09-21T07:11:07.119Z,53.30
2018-09-21T07:13:35.475Z,53.00
2018-09-21T07:16:03.837Z,52.80
2018-09-21T07:18:32.195Z,53.70
2018-09-21T07:21:00.529Z,53.50
2018-09-21T07:23:28.911Z,53.30
2018-09-21T07:25:57.252Z,53.00
2018-09-21T07:28:25.603Z,51.80
2018-09-21T07:30:54.021Z,51.60
2018-09-21T07:33:22.373Z,51.20
2018-09-21T07:35:50.768Z,51.00
2018-09-21T07:38:19.137Z,50.80
2018-09-21T07:40:47.509Z,50.90
2018-09-21T07:43:15.843Z,50.90
2018-09-21T07:45:44.821Z,50.90
2018-09-21T07:48:13.188Z,51.50
2018-09-21T07:50:41.527Z,51.10
2018-09-21T07:53:09.893Z,51.00
2018-09-21T07:55:38.347Z,51.00
2018-09-21T07:58:06.906Z,51.10
2018-09-21T08:00:35.256Z,51.20
2018-09-21T08:03:03.600Z,50.20
2018-09-21T08:05:33.873Z,49.20
2018-09-21T08:08:03.771Z,49.10
2018-09-21T08:10:32.137Z,48.60
2018-09-21T08:13:00.985Z,49.10
2018-09-21T08:15:29.745Z,48.80
2018-09-21T08:17:58.212Z,48.60
2018-09-21T08:20:26.837Z,48.20
2018-09-21T08:22:55.246Z,47.60
2018-09-21T08:25:24.603Z,48.10
2018-09-21T08:27:52.927Z,47.60
2018-09-21T08:30:21.264Z,47.90
2018-09-21T08:32:50.266Z,47.70
2018-09-21T08:35:18.661Z,47.20
2018-09-21T08:37:47.001Z,46.90
2018-09-21T08:40:15.362Z,46.90
2018-09-21T08:42:43.692Z,47.20
2018-09-21T08:45:12.030Z,47.30
2018-09-21T08:47:40.380Z,46.90
2018-09-21T08:50:09.503Z,46.70
2018-09-21T08:52:38.167Z,47.00
2018-09-21T08:55:06.841Z,46.60
2018-09-21T08:57:35.211Z,46.30
2018-09-21T09:00:04.035Z,46.20
2018-09-21T09:02:32.398Z,46.00
2018-09-21T09:05:00.761Z,45.50
2018-09-21T09:07:29.188Z,44.90
2018-09-21T09:09:57.494Z,44.10
2018-09-21T09:12:25.884Z,44.20
2018-09-21T09:14:54.256Z,44.00
2018-09-21T09:17:22.729Z,42.80
2018-09-21T09:19:51.090Z,42.50
2018-09-21T09:22:19.407Z,42.30
2018-09-21T09:24:48.484Z,42.50
2018-09-21T09:27:16.824Z,42.50
2018-09-21T09:29:45.158Z,42.90
2018-09-21T09:32:13.490Z,42.50
2018-09-21T09:34:41.817Z,41.30
2018-09-21T09:37:10.179Z,40.50
2018-09-21T09:39:38.635Z,39.70
2018-09-21T09:42:07.004Z,40.20
2018-09-21T09:44:35.338Z,40.10
2018-09-21T09:47:03.675Z,39.80
2018-09-21T09:49:32.021Z,39.60
2018-09-21T09:52:00.357Z,38.90
2018-09-21T09:54:28.768Z,39.10
2018-09-21T09:56:57.110Z,39.40
2018-09-21T09:59:25.625Z,38.50
2018-09-21T10:01:53.951Z,38.50
2018-09-21T10:04:22.325Z,38.10
2018-09-21T10:06:50.742Z,37.30
2018-09-21T10:09:19.122Z,36.90
2018-09-21T10:11:47.466Z,34.80
2018-09-21T10:14:15.818Z,34.70
2018-09-21T10:16:44.757Z,34.90
2018-09-21T10:19:13.703Z,35.00
2018-09-21T10:21:42.026Z,35.00
2018-09-21T10:24:10.464Z,34.80
2018-09-21T10:26:38.768Z,33.80
2018-09-21T10:29:07.193Z,32.70
2018-09-21T10:31:35.524Z,32.70
2018-09-21T10:34:04.004Z,32.70
2018-09-21T10:36:32.460Z,33.30
2018-09-21T10:39:00.824Z,33.20
2018-09-21T10:41:29.230Z,32.70
2018-09-21T10:43:57.583Z,33.00
2018-09-21T10:46:25.948Z,33.00
2018-09-21T10:48:55.704Z,32.80
2018-09-21T10:51:24.093Z,33.20
2018-09-21T10:53:52.517Z,34.10
2018-09-21T10:56:20.846Z,33.80
2018-09-21T10:58:49.208Z,34.20
2018-09-21T11:01:18.443Z,33.90
2018-09-21T11:03:46.925Z,34.40
2018-09-21T11:06:15.272Z,35.30
2018-09-21T11:08:43.633Z,35.40
2018-09-21T11:11:11.974Z,35.90
2018-09-21T11:13:40.394Z,36.20
2018-09-21T11:16:08.769Z,36.20
2018-09-21T11:18:37.114Z,36.60
2018-09-21T11:21:05.588Z,37.00
2018-09-21T11:23:33.963Z,37.40
2018-09-21T11:26:02.391Z,37.90
2018-09-21T11:28:30.724Z,39.00
2018-09-21T11:30:59.698Z,39.00
2018-09-21T11:33:28.024Z,39.40
2018-09-21T11:35:57.061Z,40.20
2018-09-21T11:38:25.437Z,40.00
2018-09-21T11:40:53.763Z,40.80
2018-09-21T11:43:22.089Z,42.00
2018-09-21T11:45:50.909Z,44.70
2018-09-21T11:48:19.383Z,47.70
2018-09-21T11:50:47.749Z,48.00
2018-09-21T11:53:16.118Z,50.60
2018-09-21T11:55:45.060Z,50.60
2018-09-21T11:58:13.417Z,51.30
2018-09-21T12:00:41.792Z,52.70
2018-09-21T12:03:10.243Z,53.30
2018-09-21T12:05:38.619Z,53.90
2018-09-21T12:08:07.629Z,55.60
2018-09-21T12:10:36.673Z,55.00
2018-09-21T12:13:04.981Z,57.60
2018-09-21T12:15:33.331Z,57.20
2018-09-21T12:18:01.691Z,58.70
2018-09-21T12:20:30.044Z,58.90
2018-09-21T12:22:58.470Z,60.40
2018-09-21T12:25:26.825Z,61.70
2018-09-21T12:27:55.895Z,64.40
2018-09-21T12:30:24.318Z,65.30
2018-09-21T12:32:52.760Z,63.30
2018-09-21T12:35:21.143Z,64.80
2018-09-21T12:37:50.221Z,64.30
2018-09-21T12:40:18.582Z,65.30
2018-09-21T12:42:47.740Z,66.80
2018-09-21T12:45:16.076Z,58.00
2018-09-21T12:47:45.016Z,58.60
2018-09-21T12:50:13.421Z,59.30
2018-09-21T12:52:41.776Z,62.30
2018-09-21T12:55:10.791Z,61.40
2018-09-21T12:57:39.163Z,63.90
2018-09-21T13:00:09.068Z,66.20
2018-09-21T13:02:37.862Z,64.10
2018-09-21T13:05:06.224Z,62.50
2018-09-21T13:07:34.578Z,64.30
2018-09-21T13:10:03.108Z,62.90
2018-09-21T13:12:31.540Z,62.90
2018-09-21T13:15:00.068Z,63.50
2018-09-21T13:17:28.394Z,64.10
2018-09-21T13:19:56.720Z,63.40
2018-09-21T13:22:25.277Z,64.00
2018-09-21T13:24:53.636Z,65.70
2018-09-21T13:27:21.987Z,65.70
2018-09-21T13:29:50.297Z,64.40
2018-09-21T13:32:19.034Z,65.60
2018-09-21T13:34:47.503Z,65.00
2018-09-21T13:37:15.841Z,65.60
2018-09-21T13:39:44.202Z,65.60
2018-09-21T13:42:12.549Z,65.70
2018-09-21T13:44:40.969Z,63.90
2018-09-21T13:47:09.336Z,64.30
2018-09-21T13:49:37.745Z,62.80
2018-09-21T13:52:06.225Z,63.40
2018-09-21T13:54:34.668Z,64.80
2018-09-21T13:57:03.049Z,65.60
2018-09-21T13:59:31.349Z,63.60
2018-09-21T14:01:59.710Z,64.60
2018-09-21T14:04:28.099Z,66.00
2018-09-21T14:06:56.551Z,65.50
2018-09-21T14:09:24.956Z,64.90
2018-09-21T14:11:59.976Z,66.20
2018-09-21T14:14:28.448Z,65.60
2018-09-21T14:16:56.838Z,66.00
2018-09-21T14:19:25.271Z,67.10
2018-09-21T14:21:53.638Z,66.60
2018-09-21T14:24:22.045Z,65.70
2018-09-21T14:26:50.689Z,66.80
2018-09-21T14:29:19.035Z,64.60
2018-09-21T14:31:47.931Z,64.10
2018-09-21T14:34:16.487Z,65.80
2018-09-21T14:36:45.565Z,66.10
2018-09-21T14:39:13.950Z,64.90
2018-09-21T14:41:42.333Z,65.10
2018-09-21T14:44:10.707Z,65.80
2018-09-21T14:46:39.185Z,65.80
2018-09-21T14:49:07.532Z,66.00
2018-09-21T14:51:35.872Z,66.00
2018-09-21T14:54:04.251Z,66.50
2018-09-21T14:56:32.623Z,66.10
2018-09-21T14:59:01.003Z,67.60
2018-09-21T15:01:29.329Z,64.40
2018-09-21T15:03:57.693Z,66.10
2018-09-21T15:06:26.142Z,66.20
2018-09-21T15:08:54.499Z,64.90
2018-09-21T15:11:23.431Z,65.30
2018-09-21T15:13:52.101Z,65.10
2018-09-21T15:16:20.486Z,64.40
2018-09-21T15:18:49.488Z,66.20
2018-09-21T15:21:17.926Z,64.80
2018-09-21T15:23:46.315Z,64.50
2018-09-21T15:26:15.331Z,66.20
2018-09-21T15:28:43.717Z,66.20
2018-09-21T15:31:12.118Z,66.70
2018-09-21T15:33:40.543Z,66.20
2018-09-21T15:36:08.922Z,62.70
2018-09-21T15:38:37.296Z,65.10
2018-09-21T15:41:05.672Z,63.30
2018-09-21T15:43:34.120Z,62.90
2018-09-21T15:46:02.456Z,62.10
2018-09-21T15:48:30.794Z,61.60
2018-09-21T15:50:59.181Z,63.40
2018-09-21T15:53:28.031Z,61.80
2018-09-21T15:55:56.522Z,64.00
2018-09-21T15:58:24.918Z,63.00
2018-09-21T16:00:53.856Z,62.40
2018-09-21T16:03:22.295Z,63.40
2018-09-21T16:05:50.622Z,62.60
2018-09-21T16:08:18.978Z,61.90
2018-09-21T16:10:47.361Z,62.80
2018-09-21T16:13:15.851Z,62.50
2018-09-21T16:15:44.196Z,62.80
2018-09-21T16:18:12.517Z,62.20
2018-09-21T16:20:41.164Z,62.20
2018-09-21T16:23:10.942Z,62.50
2018-09-21T16:25:39.440Z,61.20
2018-09-21T16:28:08.176Z,61.30
2018-09-21T16:30:36.628Z,60.50
2018-09-21T16:33:05.114Z,60.00
2018-09-21T16:35:37.202Z,60.00
2018-09-21T16:38:05.583Z,60.20
2018-09-21T16:40:34.542Z,59.20
2018-09-21T16:43:02.879Z,58.70
2018-09-21T16:45:31.792Z,59.00
2018-09-21T16:48:00.412Z,59.10
2018-09-21T16:50:28.762Z,59.10
2018-09-21T16:52:57.120Z,58.50
2018-09-21T16:55:26.139Z,59.20
2018-09-21T16:57:54.518Z,58.10
2018-09-21T17:00:23.004Z,57.70
2018-09-21T17:02:51.379Z,58.90
2018-09-21T17:05:19.759Z,58.00
2018-09-21T17:07:48.114Z,58.00
2018-09-21T17:10:16.506Z,50.20
2018-09-21T17:12:45.312Z,50.90
2018-09-21T17:15:13.645Z,50.90
2018-09-21T17:17:41.990Z,46.40
2018-09-21T17:20:10.438Z,47.20
2018-09-21T17:22:39.045Z,46.30
2018-09-21T17:25:09.052Z,46.50
2018-09-21T17:27:37.562Z,44.70
2018-09-21T17:30:06.034Z,44.70
2018-09-21T17:32:34.383Z,44.20
2018-09-21T17:35:02.834Z,40.90
2018-09-21T17:37:31.256Z,41.00
2018-09-21T17:39:59.574Z,41.30
2018-09-21T17:42:27.895Z,40.50
2018-09-21T17:44:56.291Z,42.10
2018-09-21T17:47:24.757Z,40.70
2018-09-21T17:49:53.119Z,40.80
2018-09-21T17:52:21.498Z,40.10
2018-09-21T17:54:50.607Z,39.60
2018-09-21T17:57:19.000Z,39.60
2018-09-21T17:59:48.084Z,39.00
2018-09-21T18:02:16.457Z,38.30
2018-09-21T18:04:45.411Z,38.90
2018-09-21T18:07:18.763Z,39.00
2018-09-21T18:09:47.971Z,37.30
2018-09-21T18:12:16.392Z,38.20
2018-09-21T18:14:44.794Z,38.20
2018-09-21T18:17:13.167Z,38.40
2018-09-21T18:19:41.819Z,37.80
2018-09-21T18:22:10.681Z,38.30
2018-09-21T18:24:39.263Z,37.10
2018-09-21T18:27:07.856Z,38.80
2018-09-21T18:29:36.273Z,38.00
2018-09-21T18:32:04.788Z,39.30
2018-09-21T18:34:33.133Z,38.00
2018-09-21T18:37:02.335Z,39.10
2018-09-21T18:39:31.101Z,40.90
2018-09-21T18:41:59.477Z,39.60
2018-09-21T18:44:27.940Z,39.20
2018-09-21T18:46:56.297Z,39.80
2018-09-21T18:49:25.359Z,39.40
2018-09-21T18:51:53.754Z,39.80
2018-09-21T18:54:22.184Z,39.30
2018-09-21T18:56:50.592Z,40.30
2018-09-21T18:59:19.551Z,39.10
2018-09-21T19:01:47.927Z,40.00
2018-09-21T19:04:16.319Z,39.40
2018-09-21T19:06:44.769Z,39.40
2018-09-21T19:09:13.370Z,37.30
2018-09-21T19:11:42.410Z,38.70
2018-09-21T19:14:10.912Z,38.10
2018-09-21T19:16:39.305Z,38.30
2018-09-21T19:19:07.700Z,37.50
2018-09-21T19:21:36.382Z,38.40
2018-09-21T19:24:07.733Z,38.80
2018-09-21T19:26:36.375Z,37.70
2018-09-21T19:29:04.628Z,37.70
2018-09-21T19:31:33.089Z,37.60
2018-09-21T19:34:01.618Z,36.80
2018-09-21T19:36:29.991Z,37.40
2018-09-21T19:38:58.391Z,36.70
2018-09-21T19:41:26.725Z,38.00
2018-09-21T19:43:55.125Z,38.00
2018-09-21T19:46:23.971Z,36.70
2018-09-21T19:48:52.367Z,37.40
2018-09-21T19:51:20.764Z,38.50
2018-09-21T19:53:49.163Z,38.00
2018-09-21T19:56:17.516Z,36.30
2018-09-21T19:58:45.893Z,37.40
2018-09-21T20:01:14.341Z,36.30
2018-09-21T20:03:42.815Z,36.40
2018-09-21T20:06:11.212Z,36.60
2018-09-21T20:08:39.657Z,36.80
2018-09-21T20:11:08.083Z,36.80
2018-09-21T20:13:36.465Z,36.30
2018-09-21T20:16:04.882Z,36.00
2018-09-21T20:18:34.104Z,36.10
2018-09-21T20:21:02.460Z,36.30
2018-09-21T20:23:30.872Z,36.50
2018-09-21T20:25:59.234Z,36.20
2018-09-21T20:28:27.632Z,36.00
2018-09-21T20:31:01.423Z,37.30
2018-09-21T20:33:31.344Z,36.80
2018-09-21T20:36:00.062Z,37.70
2018-09-21T20:38:29.221Z,36.80
2018-09-21T20:40:58.131Z,35.50
2018-09-21T20:43:26.535Z,36.90
2018-09-21T20:45:55.818Z,36.50
2018-09-21T20:48:24.705Z,36.70
2018-09-21T20:50:53.271Z,37.10
2018-09-21T20:53:22.471Z,36.90
2018-09-21T20:55:51.444Z,36.90
2018-09-21T20:58:19.840Z,36.00
2018-09-21T21:00:48.216Z,37.00
2018-09-21T21:03:16.592Z,36.30
2018-09-21T21:05:45.004Z,36.70
2018-09-21T21:08:13.598Z,37.60
2018-09-21T21:10:42.044Z,38.10
2018-09-21T21:13:10.369Z,37.00
2018-09-21T21:15:38.735Z,38.00
2018-09-21T21:18:07.298Z,38.60
2018-09-21T21:20:35.691Z,38.90
2018-09-21T21:23:04.156Z,38.70
2018-09-21T21:25:32.504Z,39.50
2018-09-21T21:28:00.832Z,39.60
2018-09-21T21:30:29.147Z,40.30
2018-09-21T21:32:57.556Z,39.80
2018-09-21T21:35:32.385Z,40.00
2018-09-21T21:38:00.752Z,40.10
2018-09-21T21:40:29.128Z,40.30
2018-09-21T21:42:57.518Z,40.30
2018-09-21T21:45:25.913Z,40.10
2018-09-21T21:47:54.305Z,39.70
2018-09-21T21:50:22.707Z,38.90
2018-09-21T21:52:51.065Z,39.10
2018-09-21T21:55:19.385Z,39.40
2018-09-21T21:57:47.835Z,39.80
2018-09-21T22:00:16.179Z,40.00
2018-09-21T22:02:45.001Z,40.70
2018-09-21T22:05:13.324Z,41.20
2018-09-21T22:07:41.702Z,41.00
2018-09-21T22:10:10.681Z,41.20
2018-09-21T22:12:44.379Z,41.50
2018-09-21T22:15:15.967Z,41.70
2018-09-21T22:17:44.302Z,42.20
2018-09-21T22:20:12.683Z,42.90
2018-09-21T22:22:41.155Z,43.80
2018-09-21T22:25:10.725Z,43.70
2018-09-21T22:27:39.110Z,43.60
2018-09-21T22:30:07.850Z,44.20
2018-09-21T22:32:36.663Z,44.10
2018-09-21T22:35:05.047Z,45.00
2018-09-21T22:37:33.412Z,45.20
2018-09-21T22:40:01.851Z,45.50
2018-09-21T22:42:30.480Z,45.80
2018-09-21T22:44:58.853Z,46.00
2018-09-21T22:47:27.165Z,45.80
2018-09-21T22:49:55.624Z,46.10
2018-09-21T22:52:24.612Z,46.70
2018-09-21T22:54:52.923Z,46.20
2018-09-21T22:57:21.263Z,46.50
2018-09-21T22:59:49.624Z,46.50
2018-09-21T23:02:17.966Z,46.50
2018-09-21T23:04:46.339Z,46.20
2018-09-21T23:07:14.810Z,46.60
2018-09-21T23:09:43.173Z,47.00
2018-09-21T23:12:11.513Z,47.20
2018-09-21T23:14:39.859Z,47.30
2018-09-21T23:17:08.191Z,47.70
2018-09-21T23:19:36.531Z,47.70
2018-09-21T23:22:04.933Z,48.00
2018-09-21T23:24:33.501Z,48.10
2018-09-21T23:27:01.830Z,48.10
2018-09-21T23:29:30.151Z,48.30
2018-09-21T23:31:58.471Z,48.10
2018-09-21T23:34:26.819Z,47.30
2018-09-21T23:36:55.288Z,47.70
2018-09-21T23:39:23.615Z,47.20
2018-09-21T23:41:51.955Z,47.30
2018-09-21T23:44:20.310Z,47.20
2018-09-21T23:46:48.643Z,47.60
2018-09-21T23:49:16.978Z,47.40
2018-09-21T23:51:45.430Z,47.40
2018-09-21T23:54:13.730Z,47.50
2018-09-21T23:56:42.150Z,47.30
2018-09-21T23:59:10.534Z,47.70
